Messwerte Puerto Princesa

Temperatur

Temperatur
°C
1575475200 0.00 0.00
1575478800 1.00 1.00
1575482400 2.00 2.00 25
1575486000 3.00 3.00
1575489600 4.00 4.00
1575493200 5.00 5.00 24
1575496800 6.00 6.00 24
1575500400 7.00 7.00 25
1575504000 8.00 8.00 26
1575507600 9.00 9.00 28
1575511200 10.00 10.00 29
1575514800 11.00 11.00 30
1575518400 12.00 12.00 31
1575522000 13.00 13.00 31
1575525600 14.00 14.00 31
1575529200 15.00 15.00 31
1575532800 16.00 16.00 30
1575536400 17.00 17.00 29
1575540000 18.00 18.00 29
1575543600 19.00 19.00 28
1575547200 20.00 20.00 28
1575550800 21.00 21.00
1575554400 22.00 22.00
1575558000 23.00 23.00 27

Aktuellste Messwerte

Wettercharakter
Wetter: freundlich
Temperatur
27 °C
Feuchtigkeit
90 %
Wind
5 km/hWindrichtung: West
Luftdruck
1011 hPa
Messzeit: 5. Dezember 2019, 23.00Datenquelle: METAR

Weitere Messstationen in der Nähe

Messstation Temperatur Entfernung
Kudat 26 °C 378 km
Sandakan 25 °C 434 km
Zamboanga - 485 km

Wind

Windrichtung Böen Mittelwind
° km/h km/h
1575475200 0.00 23.00 - 0.00
1575478800 1.00 0.00 - 1.00
1575482400 2.00 1.00 - 2.00 270° 5
1575486000 3.00 2.00 - 3.00
1575489600 4.00 3.00 - 4.00
1575493200 5.00 4.00 - 5.00 290° 15
1575496800 6.00 5.00 - 6.00 270° 10
1575500400 7.00 6.00 - 7.00 270° 15
1575504000 8.00 7.00 - 8.00 270° 5
1575507600 9.00 8.00 - 9.00 210° 5
1575511200 10.00 9.00 - 10.00 180° 5
1575514800 11.00 10.00 - 11.00 90° 10
1575518400 12.00 11.00 - 12.00 90° 10
1575522000 13.00 12.00 - 13.00 90° 10
1575525600 14.00 13.00 - 14.00 90° 10
1575529200 15.00 14.00 - 15.00 90° 10
1575532800 16.00 15.00 - 16.00 90° 10
1575536400 17.00 16.00 - 17.00 90° 10
1575540000 18.00 17.00 - 18.00 90° 5
1575543600 19.00 18.00 - 19.00 0
1575547200 20.00 19.00 - 20.00 0
1575550800 21.00 20.00 - 21.00
1575554400 22.00 21.00 - 22.00
1575558000 23.00 22.00 - 23.00 250° 5

Ihre Wetterstation

Fehlt Ihre Wetterstation auf unserem Portal?

Schreiben Sie an network@meteonews.ch

Klima

Wann ist es am wärmsten? Wann regnet es am wenigsten? Unsere Klimadaten geben Auskunft.